CheckWX is a tool to help pilots better visualize weather data.  It is not intended as a substitute for an official pre-flight weather briefing.

21:10:47 UTC

KDAB METAR
Daytona Beach International Airport
Daytona Beach, Florida, USA
Current

18 mins ago

KDAB 232053Z 06015KT 10SM SCT031 28/21 A3018 RMK AO2 SLP220 T02780206 58012
Observed
May-23 @ 20:53 UTC
Wind
  • 060° at 15 KTS
Visibility
10 SM
Flight Rules
VFR
Cloud Levels
  • Scattered at 3,100' AGL
Temperature
28°C / 82°F
Dewpoint
21°C / 70°F
Heat Index
30°C / 86°F
Humidity
66%
Altimeter
30.18" Hg
Pressure
1022.02 hPa
Previous

1 hour ago

KDAB 231953Z 06015KT 10SM SCT033 SCT042 28/21 A3019 RMK AO2 SLP223 T02830206
Observed
May-23 @ 19:53 UTC
Wind
  • 060° at 15 KTS
Visibility
10 SM
Flight Rules
VFR
Cloud Levels
  • Scattered at 3,300' AGL
  • Scattered at 4,200' AGL
Temperature
28°C / 82°F
Dewpoint
21°C / 70°F
Heat Index
30°C / 86°F
Humidity
66%
Altimeter
30.19" Hg
Pressure
1022.32 hPa
Previous

2 hours ago

KDAB 231853Z 05016G21KT 10SM BKN032 BKN039 28/21 A3021 RMK AO2 SLP229 T02830211
Observed
May-23 @ 18:53 UTC
Wind
  • 050° at 16 KTS
  • Gusting to 21 KTS
Visibility
10 SM
Flight Rules
VFR
Cloud Levels
  • Broken at 3,200' AGL
  • Broken at 3,900' AGL
Temperature
28°C / 82°F
Dewpoint
21°C / 70°F
Heat Index
30°C / 86°F
Humidity
66%
Altimeter
30.21" Hg
Pressure
1023.02 hPa